Flight Track Log - Related Links

Times and Time Zones

All times are in EDT time to prevent confusion due to time zone crossing. See the EJA396 flight status page for this flight to view local times or setup timezone preferences in your user account.

Time Position Orientation Groundspeed Altitude Reporting Facility
EDT Latitude Longitude Course Direction KTS MPH feet Rate Location/Type
Tue 11:09:37 AM 44.9000 -93.3000 251° West 215 247 4,000  Level Minneapolis TRACON
Tue 11:10:49 AM 44.8761 -93.3969 251° West 268 308 6,200 3,358 Climbing Minneapolis Center
Tue 11:11:51 AM 44.7850 -93.4503 203° Southwest 305 351 11,500 4,560 Climbing Minneapolis Center
Tue 11:12:54 AM 44.7047 -93.5017 204° Southwest 321 369 15,700 3,600 Climbing Minneapolis Center
Tue 11:13:56 AM 44.6228 -93.5492 202° Southwest 322 371 19,000 3,387 Climbing Minneapolis Center
Tue 11:14:58 AM 44.5161 -93.6139 203° Southwest 346 398 22,700 2,162 Climbing Minneapolis Center
Tue 11:16:12 AM 44.4167 -93.6736 203° Southwest 384 442 23,900 2,471 Climbing Minneapolis Center
Tue 11:17:14 AM 44.2994 -93.7431 203° Southwest 381 438 28,300 3,387 Climbing Minneapolis Center
Tue 11:18:16 AM 44.2047 -93.7989 203° Southwest 373 429 30,900 2,081 Climbing Minneapolis Center
Tue 11:19:18 AM 44.1333 -93.8544 209° Southwest 369 425 32,600 1,935 Climbing Minneapolis Center
Tue 11:20:20 AM 44.0269 -93.9414 210° Southwest 369 425 34,900 2,274 Climbing Minneapolis Center
Tue 11:21:22 AM 43.9214 -94.0253 210° Southwest 366 421 37,300 1,488 Climbing Minneapolis Center
Tue 11:22:25 AM 43.8342 -94.0956 210° Southwest 363 418 38,000 336 Climbing Minneapolis Center
Tue 11:23:27 AM 43.7392 -94.1689 209° Southwest 384 442 38,000  Level Minneapolis Center
Tue 11:24:29 AM 43.6311 -94.2267 201° Southwest 417 480 38,000  Level Minneapolis Center
Tue 11:25:31 AM 43.5031 -94.2336 182° South 450 518 38,000  Level Minneapolis Center
Tue 11:26:33 AM 43.3781 -94.2422 183° South 452 520 38,000  Level Minneapolis Center
Tue 11:27:35 AM 43.2400 -94.2525 183° South 440 506 38,000  Level Minneapolis Center
Tue 11:28:37 AM 43.1264 -94.2614 183° South 419 482 38,000  Level Minneapolis Center
Tue 11:29:39 AM 43.0058 -94.2683 182° South 403 464 38,000  Level Minneapolis Center
Tue 11:30:41 AM 42.9064 -94.2742 182° South 397 457 38,000  Level Minneapolis Center
Tue 11:31:55 AM 42.7969 -94.2833 184° South 397 457 38,000  Level Minneapolis Center
Tue 11:32:57 AM 42.6333 -94.2936 183° South 420 483 38,000  Level Minneapolis Center
Tue 11:33:59 AM 42.5153 -94.2794 175° South 427 491 38,000  Level Minneapolis Center
Tue 11:35:02 AM 42.3992 -94.2575 172° South 444 511 38,000  Level Minneapolis Center
Tue 11:36:16 AM 42.2536 -94.2347 173° South 439 505 38,000  Level Minneapolis Center
Tue 11:37:18 AM 42.1067 -94.2097 173° South 440 506 38,000  Level Minneapolis Center
Tue 11:38:20 AM 41.9856 -94.1883 173° South 439 505 38,000  Level Minneapolis Center
Tue 11:39:22 AM 41.8644 -94.1636 171° South 439 505 38,000  Level Minneapolis Center
Tue 11:40:24 AM 41.7444 -94.1406 172° South 436 502 38,000  Level Minneapolis Center
Tue 11:41:26 AM 41.6181 -94.1161 172° South 434 499 38,000  Level Minneapolis Center
Tue 11:42:28 AM 41.5017 -94.0925 171° South 431 496 38,000  Level Minneapolis Center
Tue 11:43:31 AM 41.3828 -94.0703 172° South 432 497 38,000  Level Minneapolis Center
Tue 11:44:33 AM 41.2394 -94.0425 172° South 435 501 38,000  Level Minneapolis Center
Tue 11:45:35 AM 41.1178 -94.0186 172° South 440 506 38,000  Level Minneapolis Center
Tue 11:46:37 AM 40.9928 -93.9953 172° South 448 516 38,000  Level Minneapolis Center
Tue 11:47:38 AM 40.8928 -93.9761 172° South 452 520 38,000  Level Minneapolis Center
Tue 11:48:41 AM 40.7153 -93.9425 172° South 461 531 38,000  Level Minneapolis Center
Tue 11:49:43 AM 40.5889 -93.9194 172° South 464 534 38,000  Level Minneapolis Center
Tue 11:50:45 AM 40.4619 -93.8939 171° South 465 535 38,000  Level Minneapolis Center
Tue 11:51:59 AM 40.3339 -93.8708 172° South 468 539 38,000  Level Minneapolis Center
Tue 11:53:02 AM 40.1581 -93.8375 172° South 464 534 38,000 96 Level Minneapolis Center
Tue 11:54:04 AM 40.0319 -93.8144 172° South 463 533 38,200 484 Climbing Minneapolis Center
Tue 11:55:06 AM 39.9061 -93.7914 172° South 462 532 39,000 387 Climbing Minneapolis Center
Tue 11:56:08 AM 39.7792 -93.7672 172° South 465 535 39,000  Level Minneapolis Center
Tue 11:57:09 AM 39.6775 -93.7494 172° South 465 535 39,000  Level Minneapolis Center
Tue 11:58:12 AM 39.5033 -93.7181 172° South 458 527 39,000  Level Minneapolis Center
Tue 11:59:43 AM 39.3272 -93.6842 172° South 459 528 39,000  Level Kansas City Center
Tue 12:00:45 PM 39.1842 -93.6578 172° South 459 528 39,000  Level Kansas City Center
Tue 12:01:47 PM 39.0633 -93.6364 172° South 457 526 39,000  Level Kansas City Center
Tue 12:02:49 PM 38.9239 -93.6108 172° South 457 526 39,000  Level Kansas City Center
Tue 12:03:51 PM 38.7964 -93.5886 172° South 461 531 39,000  Level Kansas City Center
Tue 12:04:53 PM 38.6683 -93.5656 172° South 464 534 39,000  Level Kansas City Center
Tue 12:05:55 PM 38.5414 -93.5431 172° South 462 532 39,000  Level Kansas City Center
Tue 12:06:57 PM 38.3878 -93.5169 172° South 463 533 39,000  Level Kansas City Center
Tue 12:07:59 PM 38.2611 -93.4931 172° South 462 532 39,000  Level Kansas City Center
Tue 12:09:01 PM 38.1350 -93.4706 172° South 460 529 39,000  Level Kansas City Center
Tue 12:10:03 PM 38.0078 -93.4486 172° South 462 532 39,000  Level Kansas City Center
Tue 12:11:05 PM 37.8803 -93.4256 172° South 463 533 39,000  Level Kansas City Center
Tue 12:12:07 PM 37.7531 -93.4039 172° South 462 532 39,000  Level Kansas City Center
Tue 12:13:09 PM 37.6006 -93.3767 172° South 463 533 39,000  Level Kansas City Center
Tue 12:14:11 PM 37.4744 -93.3547 172° South 460 529 39,000  Level Kansas City Center
Tue 12:15:13 PM 37.3472 -93.3281 171° South 461 531 39,000  Level Kansas City Center
Tue 12:16:15 PM 37.2281 -93.2836 163° South 451 519 39,000  Level Kansas City Center
Tue 12:17:18 PM 37.1092 -93.2311 161° South 450 518 39,000  Level Kansas City Center
Tue 12:18:20 PM 36.9911 -93.1772 160° South 450 518 39,000  Level Kansas City Center
Tue 12:19:22 PM 36.8656 -93.1236 161° South 447 514 39,000  Level Kansas City Center
Tue 12:20:24 PM 36.7336 -93.0658 161° South 446 513 39,000  Level Kansas City Center
Tue 12:21:26 PM 36.6161 -93.0142 161° South 446 513 39,000 -1,016 Level Kansas City Center
Tue 12:22:28 PM 36.4894 -92.9628 162° South 447 514 36,900 -1,403 Descending Kansas City Center
Tue 12:23:30 PM 36.3678 -92.9092 160° South 457 526 36,100 -857 Descending Kansas City Center
Tue 12:24:20 PM 36.2708 -92.8719 163° South 456 525 35,300 -600 Descending Memphis Center
Tue 12:25:20 PM 36.1511 -92.8194 160° South 461 531 35,000 -150 Descending Memphis Center
Tue 12:26:20 PM 36.0422 -92.7339 148° Southeast 461 531 35,000 -250 Level Memphis Center
Tue 12:27:20 PM 35.9311 -92.6514 149° Southeast 461 531 34,500 -500 Descending Memphis Center
Tue 12:28:20 PM 35.8111 -92.6072 163° South 456 525 34,000 -1,250 Descending Memphis Center
Tue 12:29:20 PM 35.6783 -92.5575 163° South 451 519 32,000 2,500 Descending Memphis Center
Tue 12:30:20 PM 35.5769 -92.5242 165° South 457 526 39,000 3,500 Climbing Memphis Center
Tue 12:31:20 PM 35.4419 -92.4800 165° South 444 511 39,000  Level Memphis Center
Tue 12:32:20 PM 35.3406 -92.4442 164° South 408 470 39,000  Level Memphis Center
Tue 12:33:20 PM 35.2594 -92.4142 163° South 357 411 39,000  Level Memphis Center
Tue 12:34:20 PM 35.1828 -92.3894 165° South 309 356 39,000  Level Memphis Center
Tue 12:35:20 PM 35.1061 -92.3622 164° South 291 335 39,000  Level Memphis Center
Tue 12:36:20 PM 35.0469 -92.3989 207° Southwest 242 278 39,000  Level Memphis Center
Tue 12:37:20 PM 34.9897 -92.4533 218° Southwest 247 284 39,000  Level Memphis Center
Tue 12:38:20 PM 34.9325 -92.5050 217° Southwest 257 296 39,000 -14,583 Level Memphis Center
Tue 12:39:44 PM 34.8442 -92.5508 203° Southwest 268 308 4,000  Descending Memphis Center
Tue 12:40:20 PM 34.8156 -92.5172 136° Southeast 222 255 39,000 21,875 Climbing Memphis Center
Tue 12:41:20 PM 34.7603 -92.4553 137° Southeast 232 267 39,000  Level Memphis Center
Tue 12:42:20 PM 34.7047 -92.4058 144° Southeast 237 273 39,000  Level Memphis Center
Tue 12:43:20 PM 34.6639 -92.3569 135° Southeast 228 262 39,000  Level Memphis Center
Tue 12:44:20 PM 34.6686 -92.3142 82° East 147 169 39,000  Level Memphis Center
Tue 12:45:20 PM 34.6922 -92.2844 46° Northeast 111 128 39,000  Level Memphis Center
Tue 12:46:20 PM 34.7008 -92.2567 69° East 102 117 39,000  Level Memphis Center
Tue 12:47:20 PM 34.7117 -92.2242 68° East 102 117 39,000  Level Memphis Center

Login

Don't have an account? Register now (free) for customized features, flight alerts, and more!